Time;durP1;ratioP1;P1;durP2;ratioP2;P2;SDS_P1;SDS_P2;PMS_P1;PMS_P2;Temp;Humidity;BMP_temperature;BMP_pressure;BME280_temperature;BME280_humidity;BME280_pressure;Samples;Min_cycle;Max_cycle;Signal;HPM_P1;HPM_P2
2023/03/10 00:00:18;;;;;;;14.03;6.83;;;;;;;;;;1761802;81;27501;-46
2023/03/10 00:02:48;;;;;;;17.80;6.65;;;;;;;;;;1757644;81;25404;-48
2023/03/10 00:05:15;;;;;;;14.25;6.60;;;;;;;;;;1761582;81;25585;-45
2023/03/10 00:07:43;;;;;;;10.93;5.90;;;;;;;;;;1761696;81;25894;-46
2023/03/10 00:10:12;;;;;;;12.85;7.00;;;;;;;;;;1761841;81;25391;-46
2023/03/10 00:12:39;;;;;;;12.43;7.13;;;;;;;;;;1762081;81;27460;-47
2023/03/10 00:15:08;;;;;;;15.05;6.45;;;;;;;;;;1761747;81;25529;-46
2023/03/10 00:17:34;;;;;;;11.95;5.75;;;;;;;;;;1761966;80;25600;-45
2023/03/10 00:20:06;;;;;;;11.68;6.00;;;;;;;;;;1761760;81;25535;-46
2023/03/10 00:22:30;;;;;;;10.78;5.87;;;;;;;;;;1757252;81;25653;-46
2023/03/10 00:24:56;;;;;;;15.28;7.22;;;;;;;;;;1761755;81;27474;-48
2023/03/10 00:27:23;;;;;;;13.50;6.83;;;;;;;;;;1708224;81;26000;-46
2023/03/10 00:29:51;;;;;;;11.97;6.30;;;;;;;;;;1733875;81;25671;-46
2023/03/10 00:32:18;;;;;;;13.43;6.12;;;;;;;;;;1761927;81;25634;-47
2023/03/10 00:34:44;;;;;;;13.50;6.53;;;;;;;;;;1757685;80;25642;-47
2023/03/10 00:37:10;;;;;;;35.30;31.93;;;;;;;;;;1761970;81;27519;-46
2023/03/10 00:39:36;;;;;;;92.23;85.73;;;;;;;;;;1761879;81;25495;-46
2023/03/10 00:42:02;;;;;;;14.33;13.37;;;;;;;;;;1761987;81;34285;-46
2023/03/10 00:44:28;;;;;;;10.20;9.57;;;;;;;;;;1761903;81;25482;-46
2023/03/10 00:46:55;;;;;;;11.23;10.50;;;;;;;;;;1761953;81;25434;-46
2023/03/10 00:49:23;;;;;;;16.73;15.40;;;;;;;;;;1761946;81;27470;-46
2023/03/10 00:51:50;;;;;;;17.27;16.10;;;;;;;;;;1761988;80;25436;-46
2023/03/10 00:54:16;;;;;;;13.17;12.27;;;;;;;;;;1761980;81;25278;-46
2023/03/10 00:56:44;;;;;;;17.40;16.33;;;;;;;;;;1761959;81;25483;-47
2023/03/10 00:59:11;;;;;;;12.67;11.87;;;;;;;;;;1761943;81;25464;-47
2023/03/10 01:01:41;;;;;;;11.18;10.48;;;;;;;;;;1757738;81;27288;-45
2023/03/10 01:04:12;;;;;;;9.25;6.30;;;;;;;;;;1761904;81;25494;-46
2023/03/10 01:06:43;;;;;;;13.93;6.80;;;;;;;;;;1757584;81;25515;-47
2023/03/10 01:09:10;;;;;;;13.32;6.50;;;;;;;;;;1761942;81;25762;-47
2023/03/10 01:11:38;;;;;;;15.00;6.97;;;;;;;;;;1761971;80;25310;-46
2023/03/10 01:14:08;;;;;;;13.68;8.93;;;;;;;;;;1761969;81;27342;-49
2023/03/10 01:16:35;;;;;;;14.50;7.78;;;;;;;;;;1757551;81;25492;-46
2023/03/10 01:19:02;;;;;;;17.27;7.55;;;;;;;;;;1757683;81;25490;-46
2023/03/10 01:21:32;;;;;;;12.30;7.28;;;;;;;;;;1761970;81;25505;-47
2023/03/10 01:24:01;;;;;;;11.75;7.55;;;;;;;;;;1762001;81;25309;-46
2023/03/10 01:26:29;;;;;;;12.73;7.55;;;;;;;;;;1762181;81;27523;-47
2023/03/10 01:28:57;;;;;;;11.55;6.87;;;;;;;;;;1762133;81;25372;-47
2023/03/10 01:31:24;;;;;;;12.90;7.12;;;;;;;;;;1761982;81;25420;-47
2023/03/10 01:33:51;;;;;;;14.28;7.05;;;;;;;;;;1761932;81;25466;-46
2023/03/10 01:36:22;;;;;;;10.03;6.65;;;;;;;;;;1761916;81;25441;-47
2023/03/10 01:38:49;;;;;;;12.70;7.45;;;;;;;;;;1761912;81;27419;-47
2023/03/10 01:41:17;;;;;;;10.68;6.65;;;;;;;;;;1761805;81;25364;-47
2023/03/10 01:43:48;;;;;;;13.88;7.50;;;;;;;;;;1761898;81;25365;-47
2023/03/10 01:46:40;;;;;;;12.05;7.97;;;;;;;;;;1760727;81;25616;-50
2023/03/10 01:49:20;;;;;;;14.75;7.33;;;;;;;;;;1760358;81;25319;-46
2023/03/10 01:52:00;;;;;;;11.50;7.17;;;;;;;;;;1761921;81;27575;-48
2023/03/10 01:54:39;;;;;;;16.70;7.95;;;;;;;;;;1761138;81;25332;-48
2023/03/10 01:57:07;;;;;;;14.70;8.30;;;;;;;;;;1761505;81;25063;-48
2023/03/10 01:59:35;;;;;;;12.25;8.10;;;;;;;;;;1761860;81;25562;-49
2023/03/10 02:02:03;;;;;;;15.20;8.53;;;;;;;;;;1761934;80;25506;-47
2023/03/10 02:04:37;;;;;;;15.90;8.60;;;;;;;;;;1761922;81;27490;-45
2023/03/10 02:07:05;;;;;;;13.95;8.73;;;;;;;;;;1758143;81;25281;-47
2023/03/10 02:09:36;;;;;;;15.88;9.90;;;;;;;;;;1745689;82;25361;-46
2023/03/10 02:12:06;;;;;;;14.58;9.08;;;;;;;;;;1745506;82;25551;-48
2023/03/10 02:14:34;;;;;;;16.07;8.08;;;;;;;;;;1745715;82;25353;-47
2023/03/10 02:17:04;;;;;;;14.43;9.20;;;;;;;;;;1745732;82;27373;-49
2023/03/10 02:19:38;;;;;;;13.08;8.65;;;;;;;;;;1739257;82;25477;-48
2023/03/10 02:22:08;;;;;;;18.30;9.85;;;;;;;;;;1744589;82;25337;-47
2023/03/10 02:24:44;;;;;;;16.05;9.40;;;;;;;;;;1745524;82;25540;-45
2023/03/10 02:27:36;;;;;;;16.23;9.50;;;;;;;;;;1745567;82;25362;-46
2023/03/10 02:30:09;;;;;;;15.10;8.23;;;;;;;;;;1745587;82;27511;-46
2023/03/10 02:32:42;;;;;;;15.65;9.38;;;;;;;;;;1739316;82;25617;-46
2023/03/10 02:35:09;;;;;;;18.05;10.45;;;;;;;;;;1713209;82;25461;-46
2023/03/10 02:37:37;;;;;;;16.97;10.35;;;;;;;;;;1745551;82;25511;-46
2023/03/10 02:40:28;;;;;;;16.50;9.90;;;;;;;;;;1745572;82;25272;-47
2023/03/10 02:42:53;;;;;;;;;;;;;;;;;;1747833;82;28314;-47
2023/03/10 02:45:21;;;;;;;16.17;8.65;;;;;;;;;;1745431;82;25291;-49
2023/03/10 02:47:48;;;;;;;17.32;9.83;;;;;;;;;;1745489;82;25339;-47
2023/03/10 02:50:17;;;;;;;18.90;9.50;;;;;;;;;;1745490;82;27714;-45
2023/03/10 02:52:47;;;;;;;16.30;9.53;;;;;;;;;;1745686;82;25555;-45
2023/03/10 02:55:17;;;;;;;18.25;10.23;;;;;;;;;;1745518;82;27435;-46
2023/03/10 02:57:44;;;;;;;17.15;9.25;;;;;;;;;;1745460;82;25613;-47
2023/03/10 03:00:13;;;;;;;16.87;9.93;;;;;;;;;;1739326;82;25502;-47
2023/03/10 03:02:40;;;;;;;;;;;;;;;;;;1748111;82;25520;-47
2023/03/10 03:05:09;;;;;;;16.80;8.83;;;;;;;;;;1745600;82;25345;-47
2023/03/10 03:07:35;;;;;;;12.78;8.75;;;;;;;;;;1745675;81;27472;-47
2023/03/10 03:10:05;;;;;;;20.37;10.13;;;;;;;;;;1715960;82;25381;-47
2023/03/10 03:12:32;;;;;;;17.07;8.58;;;;;;;;;;1739432;82;25583;-47
2023/03/10 03:14:59;;;;;;;16.57;9.53;;;;;;;;;;1745510;82;25558;-49
2023/03/10 03:17:27;;;;;;;15.15;8.25;;;;;;;;;;1745523;82;25339;-47
2023/03/10 03:19:54;;;;;;;19.37;8.97;;;;;;;;;;1745790;82;27381;-47
2023/03/10 03:22:22;;;;;;;14.58;8.45;;;;;;;;;;1745395;82;25452;-47
2023/03/10 03:24:49;;;;;;;17.00;9.75;;;;;;;;;;1745536;82;25471;-47
2023/03/10 03:27:16;;;;;;;17.02;9.55;;;;;;;;;;1745419;82;25620;-47
2023/03/10 03:29:43;;;;;;;18.27;9.50;;;;;;;;;;1745524;82;25488;-47
2023/03/10 03:32:10;;;;;;;16.82;8.73;;;;;;;;;;1745493;82;27436;-47
2023/03/10 03:34:37;;;;;;;13.90;7.55;;;;;;;;;;1745508;82;25327;-48
2023/03/10 03:37:04;;;;;;;16.62;8.40;;;;;;;;;;1739363;82;25432;-47
2023/03/10 03:39:31;;;;;;;15.40;8.48;;;;;;;;;;1714846;82;27765;-51
2023/03/10 03:41:58;;;;;;;19.85;9.98;;;;;;;;;;1745558;82;25404;-46
2023/03/10 03:44:24;;;;;;;21.02;10.48;;;;;;;;;;1745537;82;27290;-46
2023/03/10 03:46:51;;;;;;;19.90;9.15;;;;;;;;;;1739293;82;25351;-46
2023/03/10 03:49:18;;;;;;;16.65;9.10;;;;;;;;;;1745554;82;25318;-46
2023/03/10 03:51:45;;;;;;;20.52;9.25;;;;;;;;;;1745523;82;25537;-47
2023/03/10 03:54:13;;;;;;;19.87;10.35;;;;;;;;;;1745525;82;25512;-47
2023/03/10 03:56:40;;;;;;;16.95;10.82;;;;;;;;;;1745515;82;27994;-46
2023/03/10 03:59:07;;;;;;;18.27;10.30;;;;;;;;;;1745371;82;25326;-46
2023/03/10 04:01:34;;;;;;;17.80;9.63;;;;;;;;;;1745496;82;25464;-46
2023/03/10 04:04:01;;;;;;;15.80;8.58;;;;;;;;;;1745497;82;25499;-46
2023/03/10 04:06:27;;;;;;;17.02;8.60;;;;;;;;;;1739330;82;25392;-47
2023/03/10 04:08:54;;;;;;;17.17;8.58;;;;;;;;;;1711085;82;27450;-46
2023/03/10 04:11:22;;;;;;;18.45;8.80;;;;;;;;;;1736149;82;25881;-47
2023/03/10 04:13:49;;;;;;;13.25;8.05;;;;;;;;;;1736265;82;25287;-48
2023/03/10 04:16:16;;;;;;;15.85;8.78;;;;;;;;;;1736192;82;27715;-46
2023/03/10 04:18:43;;;;;;;15.88;9.10;;;;;;;;;;1736311;82;25523;-47
2023/03/10 04:21:11;;;;;;;15.50;8.08;;;;;;;;;;1736265;82;27452;-46
2023/03/10 04:23:40;;;;;;;18.60;10.85;;;;;;;;;;1707503;82;25775;-47
2023/03/10 04:26:08;;;;;;;13.43;7.95;;;;;;;;;;1736153;82;25459;-47
2023/03/10 04:28:37;;;;;;;24.82;20.90;;;;;;;;;;1736250;82;26121;-46
2023/03/10 04:31:08;;;;;;;28.90;26.15;;;;;;;;;;1736433;82;25319;-46
2023/03/10 04:33:35;;;;;;;19.70;11.15;;;;;;;;;;1735380;82;27445;-47
2023/03/10 04:36:03;;;;;;;21.00;10.82;;;;;;;;;;1736169;82;25347;-46
2023/03/10 04:38:30;;;;;;;20.43;11.28;;;;;;;;;;1736228;82;25320;-47
2023/03/10 04:40:58;;;;;;;19.17;10.95;;;;;;;;;;1736197;82;25588;-48
2023/03/10 04:43:25;;;;;;;21.95;10.65;;;;;;;;;;1708786;82;25498;-46
2023/03/10 04:45:52;;;;;;;21.48;11.43;;;;;;;;;;1736238;82;27419;-46
2023/03/10 04:48:19;;;;;;;22.30;12.60;;;;;;;;;;1708626;82;26057;-46
2023/03/10 04:50:55;;;;;;;20.35;11.22;;;;;;;;;;1736380;82;25456;-47
2023/03/10 04:53:23;;;;;;;23.55;12.15;;;;;;;;;;1735334;82;27847;-48
2023/03/10 04:55:51;;;;;;;23.35;12.93;;;;;;;;;;1736252;82;25497;-48
2023/03/10 04:58:19;;;;;;;23.10;12.80;;;;;;;;;;1736211;82;27455;-47
2023/03/10 05:00:48;;;;;;;20.88;12.70;;;;;;;;;;1736344;82;25317;-48
2023/03/10 05:03:15;;;;;;;19.25;12.37;;;;;;;;;;1736245;82;25473;-49
2023/03/10 05:05:43;;;;;;;21.02;12.03;;;;;;;;;;1736160;82;25547;-49
2023/03/10 05:08:10;;;;;;;20.60;12.40;;;;;;;;;;1740724;81;25768;-48
2023/03/10 05:10:42;;;;;;;21.82;12.47;;;;;;;;;;1761806;81;27425;-48
2023/03/10 05:13:11;;;;;;;24.50;12.60;;;;;;;;;;1761868;81;25507;-48
2023/03/10 05:15:40;;;;;;;20.50;12.23;;;;;;;;;;1762112;81;25281;-46
2023/03/10 05:18:10;;;;;;;23.02;12.43;;;;;;;;;;1762048;81;25541;-50
2023/03/10 05:20:38;;;;;;;23.12;12.23;;;;;;;;;;1762006;81;25358;-47
2023/03/10 05:23:05;;;;;;;19.05;10.88;;;;;;;;;;1761896;81;27428;-48
2023/03/10 05:25:32;;;;;;;25.08;12.55;;;;;;;;;;1761840;81;25364;-47
2023/03/10 05:27:59;;;;;;;21.10;12.05;;;;;;;;;;1761903;81;25346;-47
2023/03/10 05:30:26;;;;;;;23.57;12.65;;;;;;;;;;1761895;81;25493;-48
2023/03/10 05:32:53;;;;;;;21.20;12.68;;;;;;;;;;1761946;81;25450;-48
2023/03/10 05:35:20;;;;;;;21.75;12.85;;;;;;;;;;1761923;81;27375;-48
2023/03/10 05:37:48;;;;;;;21.48;12.45;;;;;;;;;;1761843;81;25478;-47
2023/03/10 05:40:18;;;;;;;24.12;13.38;;;;;;;;;;1761937;80;25354;-46
2023/03/10 05:42:49;;;;;;;22.73;12.05;;;;;;;;;;1761977;81;25530;-48
2023/03/10 05:45:17;;;;;;;20.60;12.07;;;;;;;;;;1761942;81;25287;-47
2023/03/10 05:47:45;;;;;;;24.10;12.70;;;;;;;;;;1761887;81;27488;-47
2023/03/10 05:50:14;;;;;;;25.60;13.80;;;;;;;;;;1757766;81;25489;-47
2023/03/10 05:52:43;;;;;;;22.80;12.33;;;;;;;;;;1762172;81;25484;-48
2023/03/10 05:55:13;;;;;;;23.55;13.85;;;;;;;;;;1761914;81;25605;-47
2023/03/10 05:57:40;;;;;;;23.25;13.20;;;;;;;;;;1761992;81;25099;-49
2023/03/10 06:00:10;;;;;;;25.62;13.55;;;;;;;;;;1761905;81;27371;-46
2023/03/10 06:02:38;;;;;;;23.27;12.63;;;;;;;;;;1761869;81;25288;-48
2023/03/10 06:05:08;;;;;;;22.70;13.60;;;;;;;;;;1761937;81;25498;-47
2023/03/10 06:07:35;;;;;;;24.00;12.00;;;;;;;;;;1761853;81;25453;-47
2023/03/10 06:10:04;;;;;;;25.68;13.43;;;;;;;;;;1761869;81;25540;-47
2023/03/10 06:12:33;;;;;;;22.67;13.05;;;;;;;;;;1762127;81;27540;-47
2023/03/10 06:15:01;;;;;;;23.77;12.63;;;;;;;;;;1761851;81;25325;-49
2023/03/10 06:17:27;;;;;;;25.02;13.70;;;;;;;;;;1761936;81;25534;-47
2023/03/10 06:19:56;;;;;;;25.27;13.55;;;;;;;;;;1762198;81;25536;-48
2023/03/10 06:22:24;;;;;;;23.87;12.88;;;;;;;;;;1761919;81;25380;-47
2023/03/10 06:24:51;;;;;;;22.95;13.10;;;;;;;;;;1761911;81;27316;-46
2023/03/10 06:27:18;;;;;;;25.10;13.08;;;;;;;;;;1757343;80;25326;-48
2023/03/10 06:29:48;;;;;;;22.62;12.15;;;;;;;;;;1761878;81;25261;-47
2023/03/10 06:32:15;;;;;;;25.45;12.90;;;;;;;;;;1762005;81;25561;-47
2023/03/10 06:34:42;;;;;;;30.23;13.85;;;;;;;;;;1761098;81;25430;-46
2023/03/10 06:37:09;;;;;;;28.05;14.18;;;;;;;;;;1760466;81;27374;-47
2023/03/10 06:39:39;;;;;;;28.83;14.65;;;;;;;;;;1761533;81;25341;-48
2023/03/10 06:42:07;;;;;;;24.77;13.35;;;;;;;;;;1761049;81;25505;-47
2023/03/10 06:44:35;;;;;;;27.45;13.62;;;;;;;;;;1760612;81;25654;-48
2023/03/10 06:47:04;;;;;;;27.82;13.95;;;;;;;;;;1761800;81;25285;-46
2023/03/10 06:49:33;;;;;;;25.17;13.60;;;;;;;;;;1761981;81;28310;-47
2023/03/10 06:52:00;;;;;;;28.40;14.47;;;;;;;;;;1761780;81;25506;-49
2023/03/10 06:54:28;;;;;;;28.20;14.93;;;;;;;;;;1761845;81;25472;-46
2023/03/10 06:56:56;;;;;;;27.98;14.87;;;;;;;;;;1761833;81;25550;-47
2023/03/10 06:59:23;;;;;;;23.98;13.13;;;;;;;;;;1761917;81;25518;-47
2023/03/10 07:01:50;;;;;;;30.88;14.55;;;;;;;;;;1761845;81;29581;-47
2023/03/10 07:04:17;;;;;;;26.62;15.08;;;;;;;;;;1761768;81;25264;-47
2023/03/10 07:06:44;;;;;;;30.75;16.40;;;;;;;;;;1761878;80;25366;-47
2023/03/10 07:09:11;;;;;;;26.70;13.53;;;;;;;;;;1761742;81;25497;-48
2023/03/10 07:11:38;;;;;;;26.50;14.85;;;;;;;;;;1761858;81;25297;-47
2023/03/10 07:14:06;;;;;;;26.55;13.80;;;;;;;;;;1761803;81;27323;-47
2023/03/10 07:16:33;;;;;;;26.02;13.55;;;;;;;;;;1761795;81;25664;-48
2023/03/10 07:19:00;;;;;;;32.05;16.65;;;;;;;;;;1761901;81;25491;-47
2023/03/10 07:21:28;;;;;;;30.80;14.95;;;;;;;;;;1761845;80;25905;-47
2023/03/10 07:23:55;;;;;;;28.23;14.68;;;;;;;;;;1755197;80;25277;-47
2023/03/10 07:26:22;;;;;;;28.15;14.63;;;;;;;;;;1761950;81;27935;-47
2023/03/10 07:28:49;;;;;;;30.43;15.93;;;;;;;;;;1761736;81;25482;-47
2023/03/10 07:31:16;;;;;;;27.75;15.23;;;;;;;;;;1761842;81;25443;-47
2023/03/10 07:33:44;;;;;;;32.88;18.05;;;;;;;;;;1761771;81;25697;-46
2023/03/10 07:36:14;;;;;;;29.55;15.55;;;;;;;;;;1761841;81;25289;-48
2023/03/10 07:38:42;;;;;;;31.42;17.75;;;;;;;;;;1761797;81;29579;-47
2023/03/10 07:41:12;;;;;;;30.25;16.42;;;;;;;;;;1761784;81;25502;-47
2023/03/10 07:43:39;;;;;;;29.05;15.75;;;;;;;;;;1761876;81;25403;-48
2023/03/10 07:46:10;;;;;;;34.53;17.15;;;;;;;;;;1761817;81;27646;-47
2023/03/10 07:48:38;;;;;;;31.97;18.50;;;;;;;;;;1761898;81;25527;-47
2023/03/10 07:51:06;;;;;;;33.45;17.87;;;;;;;;;;1761867;81;27889;-46
2023/03/10 07:53:34;;;;;;;34.23;17.82;;;;;;;;;;1761787;81;25960;-49
2023/03/10 07:56:09;;;;;;;31.85;17.37;;;;;;;;;;1761500;81;25340;-46
2023/03/10 07:58:37;;;;;;;38.10;19.75;;;;;;;;;;1761269;81;25569;-45
2023/03/10 08:01:06;;;;;;;93.85;85.25;;;;;;;;;;1761849;81;25300;-45
2023/03/10 08:03:34;;;;;;;68.15;62.30;;;;;;;;;;1762087;81;27490;-47
2023/03/10 08:06:04;;;;;;;93.30;84.87;;;;;;;;;;1761747;81;25308;-46
2023/03/10 08:08:30;;;;;;;97.88;88.85;;;;;;;;;;1761893;81;25533;-47
2023/03/10 08:11:04;;;;;;;97.90;88.78;;;;;;;;;;1761711;80;25555;-46
2023/03/10 08:13:32;;;;;;;42.45;20.35;;;;;;;;;;1761865;81;25523;-46
2023/03/10 08:16:01;;;;;;;39.48;20.92;;;;;;;;;;1761860;81;27359;-46
2023/03/10 08:18:30;;;;;;;41.15;20.95;;;;;;;;;;1761898;81;25707;-46
2023/03/10 08:20:58;;;;;;;43.05;21.35;;;;;;;;;;1761481;81;30585;-47
2023/03/10 08:23:25;;;;;;;40.23;21.77;;;;;;;;;;1760082;81;26482;-47
2023/03/10 08:25:52;;;;;;;41.33;21.23;;;;;;;;;;1756577;81;25620;-46
2023/03/10 08:28:19;;;;;;;44.08;22.10;;;;;;;;;;1761880;81;27437;-47
2023/03/10 08:30:46;;;;;;;45.95;24.63;;;;;;;;;;1733779;81;25398;-46
2023/03/10 08:33:13;;;;;;;44.60;23.60;;;;;;;;;;1761854;81;25447;-47
2023/03/10 08:35:40;;;;;;;43.33;22.80;;;;;;;;;;1761812;81;25865;-49
2023/03/10 08:38:08;;;;;;;47.00;23.25;;;;;;;;;;1755093;81;25349;-48
2023/03/10 08:40:36;;;;;;;42.27;22.10;;;;;;;;;;1762043;81;29576;-48
2023/03/10 08:43:04;;;;;;;47.08;23.62;;;;;;;;;;1761735;80;25653;-47
2023/03/10 08:45:32;;;;;;;42.00;20.57;;;;;;;;;;1761920;81;25487;-48
2023/03/10 08:47:59;;;;;;;41.02;21.00;;;;;;;;;;1761968;81;25454;-47
2023/03/10 08:50:26;;;;;;;39.53;19.25;;;;;;;;;;1761921;81;25444;-48
2023/03/10 08:52:53;;;;;;;49.58;22.85;;;;;;;;;;1762096;81;27298;-47
2023/03/10 08:55:20;;;;;;;43.15;21.42;;;;;;;;;;1761991;81;25304;-46
2023/03/10 08:57:47;;;;;;;46.42;20.62;;;;;;;;;;1761914;81;25459;-48
2023/03/10 09:00:16;;;;;;;41.58;19.90;;;;;;;;;;1761928;81;25569;-48
2023/03/10 09:02:43;;;;;;;44.75;20.27;;;;;;;;;;1762143;81;25445;-47
2023/03/10 09:05:11;;;;;;;36.28;17.20;;;;;;;;;;1761983;81;27384;-47
2023/03/10 09:07:38;;;;;;;43.85;20.70;;;;;;;;;;1755156;80;25825;-47
2023/03/10 09:10:06;;;;;;;40.28;18.90;;;;;;;;;;1755930;81;25513;-47
2023/03/10 09:12:33;;;;;;;42.23;19.57;;;;;;;;;;1745604;82;27742;-46
2023/03/10 09:15:01;;;;;;;48.28;21.33;;;;;;;;;;1745678;82;25524;-47
2023/03/10 09:17:28;;;;;;;42.10;19.98;;;;;;;;;;1745631;82;28221;-47
2023/03/10 09:19:55;;;;;;;46.68;22.45;;;;;;;;;;1745605;82;25548;-48
2023/03/10 09:22:22;;;;;;;44.42;20.57;;;;;;;;;;1745612;82;25293;-46
2023/03/10 09:24:49;;;;;;;44.45;21.25;;;;;;;;;;1745548;82;25554;-47
2023/03/10 09:27:16;;;;;;;55.12;39.70;;;;;;;;;;1745633;82;25494;-47
2023/03/10 09:29:43;;;;;;;45.80;20.90;;;;;;;;;;1745642;82;27391;-47
2023/03/10 09:32:10;;;;;;;47.58;20.43;;;;;;;;;;1745386;82;25486;-47
2023/03/10 09:34:37;;;;;;;41.90;19.32;;;;;;;;;;1745611;82;25464;-47
2023/03/10 09:37:04;;;;;;;40.43;19.02;;;;;;;;;;1730404;82;25550;-50
2023/03/10 09:39:32;;;;;;;47.45;21.82;;;;;;;;;;1745632;82;25309;-47
2023/03/10 09:42:36;;;;;;;46.63;20.90;;;;;;;;;;1745579;82;27477;-48
2023/03/10 09:45:17;;;;;;;101.15;91.08;;;;;;;;;;1745678;82;25337;-47
2023/03/10 09:47:50;;;;;;;93.50;84.35;;;;;;;;;;1745358;82;25499;-50
2023/03/10 09:50:24;;;;;;;101.00;91.40;;;;;;;;;;1738933;81;25528;-49
2023/03/10 09:53:04;;;;;;;100.72;90.85;;;;;;;;;;1743155;82;25504;-47
2023/03/10 09:55:34;;;;;;;100.67;91.53;;;;;;;;;;1653940;86;27884;-50
2023/03/10 09:58:02;;;;;;;98.72;89.07;;;;;;;;;;1706963;84;25531;-47
2023/03/10 10:00:36;;;;;;;105.67;95.85;;;;;;;;;;1706336;84;25662;-48
2023/03/10 10:03:13;;;;;;;102.20;91.78;;;;;;;;;;1705879;84;25781;-47
2023/03/10 10:05:41;;;;;;;103.07;93.50;;;;;;;;;;1706724;84;25658;-50
2023/03/10 10:08:24;;;;;;;106.32;96.02;;;;;;;;;;1707509;84;27357;-48
2023/03/10 10:10:57;;;;;;;104.05;93.58;;;;;;;;;;1701750;83;25347;-49
2023/03/10 10:13:28;;;;;;;105.67;94.85;;;;;;;;;;1717077;83;25546;-48
2023/03/10 10:16:07;;;;;;;101.25;91.72;;;;;;;;;;1717774;83;25473;-49
2023/03/10 10:18:38;;;;;;;105.03;94.83;;;;;;;;;;1716551;83;25332;-46
2023/03/10 10:21:09;;;;;;;100.00;90.67;;;;;;;;;;1717663;83;29547;-47
2023/03/10 10:23:43;;;;;;;104.87;94.50;;;;;;;;;;1717685;83;25396;-46
2023/03/10 10:26:40;;;;;;;44.48;20.97;;;;;;;4.15;100.00;98003.02;1868318;76;35025;-48
2023/03/10 10:29:21;;;;;;;44.40;20.48;;;;;;;4.15;100.00;98021.75;1756922;81;25416;-48
2023/03/10 10:32:10;;;;;;;43.55;20.92;;;;;;;4.17;100.00;98002.14;1775798;80;28253;-48
2023/03/10 10:34:39;;;;;;;;;;;;;;;4.23;100.00;98000.30;1779711;80;25437;-52
2023/03/10 10:37:34;;;;;;;101.42;54.38;;;;;;;4.32;100.00;98002.93;1777194;80;32308;-49
2023/03/10 10:40:01;;;;;;;48.95;22.25;;;;;;;4.42;100.00;97989.73;1640796;85;25500;-48
2023/03/10 10:42:33;;;;;;;48.65;22.40;;;;;;;4.54;100.00;97991.72;1618557;87;25441;-48
2023/03/10 10:45:08;;;;;;;56.45;23.38;;;;;;;4.66;100.00;97998.48;1685554;84;27695;-48
2023/03/10 10:47:51;;;;;;;50.78;21.77;;;;;;;4.73;100.00;97989.37;1683693;85;25814;-47
2023/03/10 10:50:34;;;;;;;63.40;53.28;;;;;;;4.80;100.00;97992.87;1685589;85;25579;-51
2023/03/10 10:53:23;;;;;;;44.65;21.30;;;;;;;4.84;100.00;97983.08;1685145;85;26434;-50
2023/03/10 10:56:16;;;;;;;46.88;21.23;;;;;;;4.91;100.00;97991.94;1684476;85;25625;-48
2023/03/10 10:59:07;;;;;;;43.80;20.90;;;;;;;4.96;100.00;97974.33;1684596;85;27559;-48
2023/03/10 11:01:57;;;;;;;41.45;21.17;;;;;;;5.03;100.00;97974.01;1685462;85;25668;-51
2023/03/10 11:04:28;;;;;;;41.33;17.95;;;;;;;5.19;100.00;97974.73;1685577;85;25563;-53
2023/03/10 11:07:25;;;;;;;41.10;20.62;;;;;;;5.37;100.00;97961.40;1681261;85;25448;-48
2023/03/10 11:09:56;;;;;;;51.08;29.10;;;;;;;5.53;100.00;97968.25;1685724;85;25634;-49
2023/03/10 11:12:36;;;;;;;103.92;93.80;;;;;;;5.67;100.00;97978.69;1659623;85;27001;-49
2023/03/10 11:15:31;;;;;;;101.58;92.20;;;;;;;5.75;100.00;97959.01;1712713;78;25241;-47
2023/03/10 11:18:07;;;;;;;101.53;91.80;;;;;;;5.83;100.00;97958.70;1824474;78;25597;-46
2023/03/10 11:21:15;;;;;;;100.67;91.23;;;;;;;5.85;100.00;97948.41;1824655;78;25443;-47
2023/03/10 11:24:06;;;;;;;102.53;92.70;;;;;;;5.89;100.00;97943.15;1824496;78;25192;-47
2023/03/10 11:26:55;;;;;;;103.83;94.30;;;;;;;5.92;100.00;97943.83;1828520;78;28800;-47
2023/03/10 11:29:39;;;;;;;100.70;91.28;;;;;;;5.95;100.00;97940.48;1830432;78;25568;-47
2023/03/10 11:32:41;;;;;;;102.92;93.27;;;;;;;5.97;100.00;97932.33;1808822;78;25664;-48
2023/03/10 11:35:30;;;;;;;101.38;91.92;;;;;;;6.00;100.00;97934.14;1830527;78;25793;-47
2023/03/10 11:38:31;;;;;;;100.40;91.32;;;;;;;6.04;100.00;97932.34;1829987;78;25476;-48
2023/03/10 11:41:15;;;;;;;100.75;91.45;;;;;;;6.08;100.00;97919.27;1829905;78;28276;-48
2023/03/10 11:44:21;;;;;;;103.83;94.32;;;;;;;6.15;100.00;97915.45;1828936;77;25548;-48
2023/03/10 11:47:08;;;;;;;45.03;35.05;;;;;;;6.25;100.00;97920.13;1746535;82;25590;-49
2023/03/10 11:49:42;;;;;;;42.88;19.45;;;;;;;6.36;100.00;97913.18;1716039;83;26227;-48
2023/03/10 11:52:18;;;;;;;39.92;19.98;;;;;;;6.48;100.00;97901.63;1719862;83;25640;-49
2023/03/10 11:54:50;;;;;;;39.90;20.57;;;;;;;6.61;100.00;97907.20;1719809;83;28842;-48
2023/03/10 11:57:21;;;;;;;43.85;22.62;;;;;;;6.74;100.00;97911.95;1718549;83;25477;-47
2023/03/10 11:59:58;;;;;;;38.67;20.32;;;;;;;6.79;100.00;97913.63;1719838;83;25684;-48
2023/03/10 12:03:05;;;;;;;42.45;22.22;;;;;;;6.84;100.00;97896.69;1719807;83;25891;-47
2023/03/10 12:05:37;;;;;;;101.00;91.78;;;;;;;6.90;100.00;97905.31;1686693;85;25476;-49
2023/03/10 12:08:06;;;;;;;54.00;45.40;;;;;;;7.10;100.00;97895.48;1685542;85;27517;-48
2023/03/10 12:10:37;;;;;;;97.60;89.15;;;;;;;7.26;100.00;97892.80;1686753;85;25539;-47
2023/03/10 12:13:10;;;;;;;47.17;41.45;;;;;;;7.41;100.00;97881.85;1686759;85;25593;-48
2023/03/10 12:15:39;;;;;;;32.60;19.17;;;;;;;7.60;100.00;97890.00;1686683;85;25505;-47
2023/03/10 12:18:08;;;;;;;99.52;90.67;;;;;;;7.91;100.00;97892.45;1686683;85;25483;-48
2023/03/10 12:20:36;;;;;;;99.22;90.80;;;;;;;8.32;100.00;97891.63;1686808;85;28117;-48
2023/03/10 12:23:27;;;;;;;96.12;87.72;;;;;;;8.88;100.00;97895.09;1693976;82;25754;-49
2023/03/10 12:25:53;;;;;;;32.48;21.35;;;;;;;9.17;99.30;97889.66;1744810;82;25618;-48
2023/03/10 12:28:25;;;;;;;32.88;15.90;;;;;;;9.26;95.38;97898.32;1721230;82;26037;-48
2023/03/10 12:31:03;;;;;;;25.70;14.43;;;;;;;9.32;96.36;97894.17;1721699;82;25695;-48
2023/03/10 12:33:41;;;;;;;96.50;87.72;;;;;;;9.33;94.12;97885.50;1746600;82;27533;-47
2023/03/10 12:36:32;;;;;;;95.67;87.80;;;;;;;9.32;94.58;97881.26;1746573;82;25753;-49
2023/03/10 12:39:19;;;;;;;94.15;86.32;;;;;;;9.46;94.09;97894.98;1746898;81;25671;-49
2023/03/10 12:42:29;;;;;;;90.28;82.97;;;;;;;9.51;93.05;97886.59;1766942;78;25454;-52
2023/03/10 12:45:28;;;;;;;93.03;85.57;;;;;;;9.51;92.07;97896.03;1775363;80;25771;-49
2023/03/10 12:48:06;;;;;;;92.42;84.70;;;;;;;9.51;93.08;97896.03;1736002;82;27600;-48
2023/03/10 12:50:53;;;;;;;93.60;86.12;;;;;;;9.65;93.19;97897.41;1775284;80;25579;-48
2023/03/10 12:53:37;;;;;;;94.17;86.37;;;;;;;9.80;92.94;97891.09;1735816;82;25713;-50
2023/03/10 12:56:19;;;;;;;92.82;85.60;;;;;;;10.16;93.40;97882.17;1775383;80;25848;-48
2023/03/10 12:58:53;;;;;;;94.55;86.45;;;;;;;10.31;91.92;97875.05;1735750;82;25448;-50
2023/03/10 13:01:27;;;;;;;93.97;86.72;;;;;;;10.45;90.63;97880.69;1731232;80;27754;-48
2023/03/10 13:03:55;;;;;;;121.42;109.55;;;;;;;10.47;90.54;97877.59;1734155;82;25879;-51
2023/03/10 13:06:32;;;;;;;92.00;84.87;;;;;;;10.47;89.37;97891.10;1774437;80;25755;-50
2023/03/10 13:09:16;;;;;;;93.33;85.92;;;;;;;10.54;89.61;97876.91;1735984;82;25491;-49
2023/03/10 13:11:51;;;;;;;88.33;81.37;;;;;;;10.65;89.39;97864.30;1775388;80;25611;-48
2023/03/10 13:14:21;;;;;;;90.10;83.10;;;;;;;10.70;88.94;97859.16;1735954;82;27463;-48
2023/03/10 13:16:59;;;;;;;88.50;81.37;;;;;;;10.77;88.92;97858.64;1735809;82;25492;-47
2023/03/10 13:19:30;;;;;;;79.30;72.82;;;;;;;10.93;88.74;97865.22;1775401;80;25510;-49
2023/03/10 13:21:57;;;;;;;92.50;85.45;;;;;;;11.12;88.14;97862.89;1752506;81;27436;-47
2023/03/10 13:24:32;;;;;;;89.22;82.55;;;;;;;11.17;85.94;97863.91;1776320;80;25653;-47
2023/03/10 13:27:06;;;;;;;88.10;81.40;;;;;;;11.30;86.58;97859.57;1756172;81;28156;-49
2023/03/10 13:29:33;;;;;;;25.68;17.15;;;;;;;11.30;85.32;97854.16;1768423;81;25633;-48
2023/03/10 13:32:00;;;;;;;90.75;83.25;;;;;;;11.25;85.64;97853.91;1756237;81;25425;-48
2023/03/10 13:34:30;;;;;;;89.45;82.65;;;;;;;11.21;85.30;97854.47;1770294;81;25468;-47
2023/03/10 13:37:07;;;;;;;92.50;85.57;;;;;;;11.19;85.97;97859.48;1756304;81;25633;-47
2023/03/10 13:39:34;;;;;;;89.00;81.70;;;;;;;11.17;85.82;97865.26;1745598;80;27479;-47
2023/03/10 13:42:19;;;;;;;22.37;12.00;;;;;;;11.11;85.21;97859.20;1756188;81;25751;-46
2023/03/10 13:44:46;;;;;;;88.78;81.82;;;;;;;11.06;85.35;97860.89;1712434;83;25615;-47
2023/03/10 13:47:23;;;;;;;86.65;79.90;;;;;;;11.01;85.45;97867.41;1769762;81;25529;-48
2023/03/10 13:50:01;;;;;;;87.22;80.75;;;;;;;10.94;85.46;97855.94;1742626;81;25671;-47
2023/03/10 13:52:31;;;;;;;88.42;81.60;;;;;;;10.92;85.53;97866.93;1770008;81;27513;-47